Seatiger — WDA9841 — position and weather

sailwx.info

Track history (hours):
 
Tides and Currents Weather Stations Pressure Air Temp Water Temp Dewpoint Dewpoint Depression Visibility Wind Speed Wind Dir Waves Ship Positions

Seatiger

Owner: GARBER BROS INC, MORGAN CITY, LA. More information available from US FCC via Universal Licensing System and Coast Guard Vessel Documentation Center.

Last reported at 2018-Feb-18 22:24 UTC. Time now 2018-May-22 05:55 UTC.
Position N 29°32' W 090°51'.
Warning: this ship's position is months out of date.

Type: Tug. MMSI: 366869580.

Date/timePositionNaut miles runAvg speedWind from/ knotsBaromVisibWave heightAir tempDewpointWater temp
2018-Feb-18 22:24N 29°32' W 090°51'2 5.8
2018-Feb-18 22:00N 29°32' W 090°49'3 5.3
2018-Feb-18 21:30N 29°33' W 090°46'2 4.9
2018-Feb-18 21:00N 29°34' W 090°43'2 3.6
2018-Feb-18 20:30N 29°32' W 090°42'3 5.5
2018-Feb-18 20:00N 29°30' W 090°43'3 5.5
2018-Feb-18 19:30N 29°27' W 090°43'3 1.7
2018-Feb-18 17:54N 29°24' W 090°44'2 4.6
2018-Feb-18 17:30N 29°26' W 090°43'2 4.5
2018-Feb-18 16:59N 29°28' W 090°43'3 5.6
2018-Feb-18 16:30N 29°31' W 090°42'3 5.1
2018-Feb-18 16:00N 29°34' W 090°43'2 3.3
2018-Feb-18 15:30N 29°35' W 090°43'3 5.1
2018-Feb-18 15:00N 29°33' W 090°42'  
2018-Feb-09 04:00N 29°33' W 090°42'2 3.5
2018-Feb-09 03:30N 29°34' W 090°44'3 6.2
2018-Feb-09 03:00N 29°32' W 090°47'  
Track history (hours):
 
Tides and Currents Weather Stations Pressure Air Temp Water Temp Dewpoint Dewpoint Depression Visibility Wind Speed Wind Dir Waves Ship Positions

Seatiger

Owner: GARBER BROS INC, MORGAN CITY, LA. More information available from US FCC via Universal Licensing System and Coast Guard Vessel Documentation Center.

Last reported at 2018-Feb-18 22:24 UTC. Time now 2018-May-22 05:55 UTC.
Position N 29°32' W 090°51'.
Warning: this ship's position is months out of date.

Type: Tug. MMSI: 366869580.

Date/timePositionNaut miles runAvg speedWind from/ knotsBaromVisibWave heightAir tempDewpointWater temp
2018-Feb-18 22:24N 29°32' W 090°51'2 5.8
2018-Feb-18 22:00N 29°32' W 090°49'3 5.3
2018-Feb-18 21:30N 29°33' W 090°46'2 4.9
2018-Feb-18 21:00N 29°34' W 090°43'2 3.6
2018-Feb-18 20:30N 29°32' W 090°42'3 5.5
2018-Feb-18 20:00N 29°30' W 090°43'3 5.5
2018-Feb-18 19:30N 29°27' W 090°43'3 1.7
2018-Feb-18 17:54N 29°24' W 090°44'2 4.6
2018-Feb-18 17:30N 29°26' W 090°43'2 4.5
2018-Feb-18 16:59N 29°28' W 090°43'3 5.6
2018-Feb-18 16:30N 29°31' W 090°42'3 5.1
2018-Feb-18 16:00N 29°34' W 090°43'2 3.3
2018-Feb-18 15:30N 29°35' W 090°43'3 5.1
2018-Feb-18 15:00N 29°33' W 090°42'  
2018-Feb-09 04:00N 29°33' W 090°42'2 3.5
2018-Feb-09 03:30N 29°34' W 090°44'3 6.2
2018-Feb-09 03:00N 29°32' W 090°47'  

Dump ship's entire track history